Time;durP1;ratioP1;P1;durP2;ratioP2;P2;SDS_P1;SDS_P2;PMS_P1;PMS_P2;Temp;Humidity;BMP_temperature;BMP_pressure;BME280_temperature;BME280_humidity;BME280_pressure;Samples;Min_cycle;Max_cycle;Signal;HPM_P1;HPM_P2
2022/09/21 00:01:41;;;;;;;4.40;4.10;;;;;;;21.50;34.54;95180.63;6162703;28;103183;-76
2022/09/21 00:04:52;;;;;;;4.80;4.40;;;;;;;21.52;34.21;95186.47;6163805;28;102885;-75
2022/09/21 00:08:06;;;;;;;4.57;4.17;;;;;;;21.53;34.43;95195.25;6163405;28;102797;-75
2022/09/21 00:11:13;;;;;;;4.70;4.30;;;;;;;21.50;34.55;95199.25;6139716;28;103556;-75
2022/09/21 00:14:18;;;;;;;3.90;3.60;;;;;;;21.48;34.70;95195.31;6163588;28;102928;-76
2022/09/21 00:17:24;;;;;;;4.07;3.77;;;;;;;21.49;34.50;95199.56;6163204;28;102988;-75
2022/09/21 00:20:29;;;;;;;4.60;4.20;;;;;;;21.49;34.41;95196.91;6161548;28;104439;-78
2022/09/21 00:23:35;;;;;;;4.43;4.13;;;;;;;21.49;34.70;95187.03;6158779;28;103423;-78
2022/09/21 00:26:42;;;;;;;4.80;4.40;;;;;;;21.48;34.65;95184.66;6163529;28;103324;-75
2022/09/21 00:29:47;;;;;;;4.30;4.00;;;;;;;21.49;34.68;95186.25;6163377;28;103177;-74
2022/09/21 00:32:54;;;;;;;3.83;3.53;;;;;;;21.49;34.57;95189.69;6157120;28;103014;-75
2022/09/21 00:36:03;;;;;;;4.00;3.70;;;;;;;21.44;34.32;95187.16;6163319;28;103058;-76
2022/09/21 00:39:10;;;;;;;4.33;3.93;;;;;;;21.47;35.07;95180.44;6163527;28;102863;-76
2022/09/21 00:42:19;;;;;;;4.30;4.00;;;;;;;21.43;34.92;95182.91;6144852;28;103477;-76
2022/09/21 00:45:24;;;;;;;3.57;3.37;;;;;;;21.41;34.97;95171.78;6131991;28;103046;-77
2022/09/21 00:48:30;;;;;;;4.43;4.13;;;;;;;21.44;35.05;95173.06;6138949;28;103603;-75
2022/09/21 00:51:35;;;;;;;4.30;4.00;;;;;;;21.42;34.84;95175.22;6137764;28;103042;-77
2022/09/21 00:54:50;;;;;;;4.33;3.97;;;;;;;21.43;34.77;95171.47;6153269;28;102825;-78
2022/09/21 00:57:59;;;;;;;4.07;3.77;;;;;;;21.44;34.75;95175.72;6160211;28;103309;-76
2022/09/21 01:01:04;;;;;;;4.30;4.00;;;;;;;21.42;34.54;95175.22;6162648;28;103390;-74
2022/09/21 01:04:09;;;;;;;4.10;3.80;;;;;;;21.43;34.68;95177.59;6162374;28;103537;-76
2022/09/21 01:07:17;;;;;;;4.23;3.93;;;;;;;21.43;34.77;95172.25;6155253;28;103800;-78
2022/09/21 01:10:22;;;;;;;4.30;4.00;;;;;;;21.39;34.78;95179.28;6161139;28;103888;-76
2022/09/21 01:13:37;;;;;;;4.23;3.93;;;;;;;21.41;34.97;95185.09;6161866;28;103307;-76
2022/09/21 01:16:48;;;;;;;4.10;3.80;;;;;;;21.38;35.08;95171.59;6161576;28;103020;-76
2022/09/21 01:20:26;;;;;;;4.27;3.97;;;;;;;21.41;34.88;95165.66;6131813;28;103648;-77
2022/09/21 01:23:43;;;;;;;4.50;4.17;;;;;;;21.35;34.73;95165.00;6136545;28;103887;-78
2022/09/21 01:27:31;;;;;;;4.47;4.10;;;;;;;21.41;35.07;95170.97;6142207;28;103345;-77
2022/09/21 01:30:41;;;;;;;4.13;3.80;;;;;;;21.33;34.97;95164.47;6110636;28;103029;-78
2022/09/21 01:33:56;;;;;;;4.40;4.00;;;;;;;21.39;34.92;95170.50;6165345;28;102989;-78
2022/09/21 01:37:04;;;;;;;4.03;3.73;;;;;;;21.35;35.10;95162.31;6165686;28;104272;-78
2022/09/21 01:40:12;;;;;;;4.30;3.87;;;;;;;21.36;34.53;95160.44;6161763;28;103148;-77
2022/09/21 01:43:24;;;;;;;4.67;4.30;;;;;;;21.32;35.18;95154.91;6163041;28;103930;-79
2022/09/21 01:46:32;;;;;;;3.90;3.60;;;;;;;21.35;34.97;95156.22;6165510;28;105379;-76
2022/09/21 01:49:38;;;;;;;4.40;4.00;;;;;;;21.33;34.82;95155.69;6164811;28;103989;-76
2022/09/21 01:52:47;;;;;;;4.00;3.70;;;;;;;21.36;34.82;95155.91;6158570;28;104588;-79
2022/09/21 01:55:54;;;;;;;4.00;3.70;;;;;;;21.34;34.89;95151.94;6164257;28;107675;-79
2022/09/21 01:59:05;;;;;;;4.43;4.00;;;;;;;21.33;34.67;95161.03;6164833;28;103241;-78
2022/09/21 02:02:17;;;;;;;4.10;3.80;;;;;;;21.33;35.08;95161.03;6164638;28;103169;-78
2022/09/21 02:05:23;;;;;;;4.17;3.87;;;;;;;21.32;35.18;95149.59;6136124;28;106869;-78
2022/09/21 02:08:27;;;;;;;3.70;3.40;;;;;;;21.27;35.41;95143.59;6140661;28;103533;-77
2022/09/21 02:11:31;;;;;;;4.17;3.77;;;;;;;21.32;34.96;95154.91;6140859;28;103730;-78
2022/09/21 02:14:37;;;;;;;4.30;3.97;;;;;;;21.32;35.01;95159.44;6147589;28;103989;-79
2022/09/21 02:17:57;;;;;;;4.30;3.90;;;;;;;21.29;35.09;95165.38;6163936;28;103285;-78
2022/09/21 02:21:07;;;;;;;3.97;3.57;;;;;;;21.29;35.10;95163.50;6164275;28;103091;-78
2022/09/21 02:24:19;;;;;;;3.90;3.60;;;;;;;21.31;35.14;95169.31;6164427;28;104323;-77
2022/09/21 02:27:32;;;;;;;4.30;4.00;;;;;;;21.27;35.12;95160.34;6156436;28;103355;-76
2022/09/21 02:30:36;;;;;;;4.03;3.73;;;;;;;21.25;34.95;95164.41;6164096;28;107113;-76
2022/09/21 02:33:51;;;;;;;3.73;3.43;;;;;;;21.27;34.86;95172.88;6163111;28;103593;-76
2022/09/21 02:37:02;;;;;;;3.73;3.40;;;;;;;21.19;35.03;95161.06;6160997;28;104029;-76
2022/09/21 02:40:14;;;;;;;4.10;3.73;;;;;;;21.25;35.08;95170.50;6162475;28;106218;-78
2022/09/21 02:43:22;;;;;;;3.80;3.50;;;;;;;21.27;35.34;95164.88;6164350;28;105089;-78
2022/09/21 02:46:29;;;;;;;3.80;3.50;;;;;;;21.26;35.11;95166.75;6163970;28;103335;-79
2022/09/21 02:49:38;;;;;;;3.87;3.57;;;;;;;21.28;34.97;95175.22;6157465;28;104618;-77
2022/09/21 02:52:43;;;;;;;4.37;4.00;;;;;;;21.25;35.05;95169.72;6164466;28;103822;-80
2022/09/21 02:55:50;;;;;;;4.30;3.97;;;;;;;21.24;35.40;95174.25;6139920;28;104269;-76
2022/09/21 02:59:03;;;;;;;3.90;3.50;;;;;;;21.27;35.12;95175.53;6148716;28;103812;-76
2022/09/21 03:02:07;;;;;;;4.30;3.50;;;;;;;21.26;35.43;95174.75;6159106;28;103458;-77
2022/09/21 03:05:13;;;;;;;4.20;3.90;;;;;;;21.24;35.32;95179.56;6164815;28;103468;-79
2022/09/21 03:08:16;;;;;;;6.20;3.77;;;;;;;21.26;35.78;95174.75;6164418;28;103552;-77
2022/09/21 03:11:20;;;;;;;4.93;4.53;;;;;;;21.31;35.65;95177.28;6158803;28;103449;-78
2022/09/21 03:14:23;;;;;;;4.77;4.37;;;;;;;21.37;35.19;95175.34;6163449;28;104533;-78
2022/09/21 03:17:26;;;;;;;5.60;5.10;;;;;;;21.39;35.26;95173.94;6163983;28;103766;-79
2022/09/21 03:20:31;;;;;;;5.47;4.97;;;;;;;21.39;35.75;95176.59;6163683;28;104795;-78
2022/09/21 03:23:34;;;;;;;6.30;4.40;;;;;;;21.38;35.70;95171.59;6156852;28;103124;-79
2022/09/21 03:26:37;;;;;;;7.23;4.40;;;;;;;21.39;35.70;95173.94;6148572;28;106220;-76
2022/09/21 03:29:41;;;;;;;4.93;4.40;;;;;;;21.37;35.94;95178.00;6138510;28;102839;-78
2022/09/21 03:32:44;;;;;;;5.30;4.80;;;;;;;21.42;35.84;95183.22;6142720;28;104125;-80
2022/09/21 03:35:49;;;;;;;7.13;5.13;;;;;;;21.42;35.93;95175.22;6143590;28;104247;-77
2022/09/21 03:38:53;;;;;;;7.27;4.57;;;;;;;21.44;35.76;95178.38;6160526;28;103295;-79
2022/09/21 03:41:56;;;;;;;5.80;4.57;;;;;;;21.44;36.07;95171.19;6148150;28;103531;-79
2022/09/21 03:45:00;;;;;;;5.40;4.90;;;;;;;21.38;36.05;95177.69;6135279;28;103207;-79
2022/09/21 03:48:03;;;;;;;8.63;4.97;;;;;;;21.36;36.23;95177.22;6143876;28;103115;-80
2022/09/21 03:51:07;;;;;;;6.57;5.87;;;;;;;21.26;36.26;95182.72;6163205;28;103997;-78
2022/09/21 03:54:11;;;;;;;8.73;5.30;;;;;;;21.33;36.54;95191.09;6144815;28;104368;-76
2022/09/21 03:57:14;;;;;;;6.23;4.80;;;;;;;21.34;36.40;95184.72;6154236;28;103304;-80
2022/09/21 04:00:17;;;;;;;5.93;4.70;;;;;;;21.33;36.41;95182.31;6161314;28;104327;-76
2022/09/21 04:03:21;;;;;;;5.93;5.43;;;;;;;21.40;36.70;95199.47;6162700;28;103338;-78
2022/09/21 04:06:26;;;;;;;6.30;5.47;;;;;;;21.46;36.59;95192.97;6162122;28;103412;-78
2022/09/21 04:09:30;;;;;;;6.23;4.70;;;;;;;21.52;36.80;95186.47;6152134;28;107269;-78
2022/09/21 04:12:33;;;;;;;6.57;5.17;;;;;;;21.58;36.97;95189.00;6159005;28;103839;-76
2022/09/21 04:15:36;;;;;;;7.07;5.60;;;;;;;21.61;37.29;95185.75;6156031;28;103545;-76
2022/09/21 04:18:39;;;;;;;6.20;5.57;;;;;;;21.61;37.33;95194.53;6157925;28;103073;-77
2022/09/21 04:21:44;;;;;;;6.70;5.13;;;;;;;21.64;37.73;95190.47;6158553;28;103251;-80
2022/09/21 04:24:48;;;;;;;5.60;4.57;;;;;;;21.54;37.19;95185.38;6163557;28;106815;-79
2022/09/21 04:27:51;;;;;;;8.50;4.43;;;;;;;21.47;37.64;95199.06;6162518;28;103072;-78
2022/09/21 04:30:55;;;;;;;5.47;4.80;;;;;;;21.44;37.70;95197.00;6155666;28;105302;-78
2022/09/21 04:33:58;;;;;;;9.30;5.47;;;;;;;21.40;37.97;95194.16;6163294;28;103391;-80
2022/09/21 04:37:03;;;;;;;5.97;4.80;;;;;;;21.40;37.81;95199.47;6163479;28;105551;-79
2022/09/21 04:40:08;;;;;;;5.23;4.83;;;;;;;21.38;37.97;95195.53;6162266;28;103416;-78
2022/09/21 04:43:11;;;;;;;6.97;4.53;;;;;;;21.36;37.37;95198.50;6155712;28;103349;-79
2022/09/21 04:46:17;;;;;;;5.00;4.30;;;;;;;21.34;37.46;95200.69;6162741;28;103154;-80
2022/09/21 04:49:20;;;;;;;5.17;4.67;;;;;;;21.30;37.10;95199.66;6162043;28;104530;-78
2022/09/21 04:52:25;;;;;;;5.23;4.53;;;;;;;21.29;37.61;95203.41;6162538;28;103774;-79
2022/09/21 04:55:28;;;;;;;5.80;5.07;;;;;;;21.31;37.70;95203.13;6156437;28;104902;-79
2022/09/21 04:58:32;;;;;;;9.27;5.53;;;;;;;21.32;37.27;95204.69;6167611;28;103798;-79
2022/09/21 05:01:36;;;;;;;5.13;4.33;;;;;;;21.30;37.27;95199.66;6166013;28;103607;-80
2022/09/21 05:04:39;;;;;;;5.77;5.10;;;;;;;21.34;37.29;95199.88;6162889;28;104052;-79
2022/09/21 05:07:44;;;;;;;6.03;5.43;;;;;;;21.30;37.38;95202.34;6165568;28;103117;-78
2022/09/21 05:10:46;;;;;;;5.57;5.07;;;;;;;21.35;36.57;95206.78;6167234;28;105409;-80
2022/09/21 05:13:49;;;;;;;5.50;5.00;;;;;;;21.32;36.81;95208.16;6167116;28;103609;-79
2022/09/21 05:16:52;;;;;;;7.30;5.17;;;;;;;21.28;36.84;95207.16;6160584;28;104903;-78
2022/09/21 05:19:55;;;;;;;5.60;5.10;;;;;;;21.34;37.26;95210.50;6168217;28;103448;-81
2022/09/21 05:23:02;;;;;;;6.30;4.90;;;;;;;21.33;37.46;95204.41;6167878;28;104558;-81
2022/09/21 05:26:05;;;;;;;5.87;5.30;;;;;;;21.29;36.99;95211.41;6168586;28;105055;-82
2022/09/21 05:29:09;;;;;;;5.30;4.80;;;;;;;21.32;37.17;95204.69;6162230;28;103429;-82
2022/09/21 05:32:22;;;;;;;8.17;5.37;;;;;;;21.33;36.90;95217.72;6167132;28;103344;-82
2022/09/21 05:35:34;;;;;;;5.70;5.20;;;;;;;21.34;36.86;95206.00;6167853;28;104711;-80
2022/09/21 05:38:39;;;;;;;5.70;5.10;;;;;;;21.35;36.84;95207.59;6164729;28;103346;-80
2022/09/21 05:41:43;;;;;;;6.90;6.00;;;;;;;21.39;36.86;95211.22;6164638;28;102702;-81
2022/09/21 05:44:48;;;;;;;6.00;5.13;;;;;;;21.37;36.65;95204.63;6167672;28;103452;-81
2022/09/21 05:48:03;;;;;;;5.73;4.80;;;;;;;21.40;36.64;95210.13;6167522;28;103097;-82
2022/09/21 05:51:14;;;;;;;5.20;4.70;;;;;;;21.41;36.80;95201.06;6161731;28;102641;-82
2022/09/21 05:54:26;;;;;;;6.20;5.60;;;;;;;21.42;36.95;95210.63;6166687;28;102741;-82
2022/09/21 05:57:41;;;;;;;6.00;5.50;;;;;;;21.44;36.50;95210.31;6167835;28;106209;-81
2022/09/21 06:00:56;;;;;;;8.03;5.40;;;;;;;21.44;36.94;95205.00;6166387;28;103570;-81
2022/09/21 06:04:02;;;;;;;5.77;5.13;;;;;;;21.43;37.06;95206.88;6161726;28;103552;-82
2022/09/21 06:07:05;;;;;;;6.10;5.50;;;;;;;21.44;37.23;95210.31;6166665;28;103298;-80
2022/09/21 06:10:12;;;;;;;5.80;5.30;;;;;;;21.47;36.94;95215.03;6166866;28;104187;-80
2022/09/21 06:13:15;;;;;;;5.60;5.10;;;;;;;21.46;37.00;95205.47;6159518;28;103636;-80
2022/09/21 06:16:21;;;;;;;5.87;5.27;;;;;;;21.46;36.68;95206.28;6167282;28;106262;-82
2022/09/21 06:19:24;;;;;;;4.93;4.53;;;;;;;21.47;36.67;95213.16;6167555;28;103307;-82
2022/09/21 06:22:27;;;;;;;5.60;5.10;;;;;;;21.58;36.69;95220.97;6166991;28;103350;-81
2022/09/21 06:25:31;;;;;;;6.10;5.13;;;;;;;21.63;36.47;95207.53;6162156;28;106759;-81
2022/09/21 06:28:35;;;;;;;5.73;4.90;;;;;;;21.63;36.41;95202.22;6168600;28;103008;-81
2022/09/21 06:31:38;;;;;;;5.30;4.30;;;;;;;21.72;37.13;95211.09;6167824;28;106336;-81
2022/09/21 06:34:41;;;;;;;6.77;4.37;;;;;;;21.83;36.60;95223.13;6166216;28;106407;-81
2022/09/21 06:37:46;;;;;;;9.10;4.77;;;;;;;21.85;36.51;95226.28;6160950;28;102772;-82
2022/09/21 06:40:51;;;;;;;6.20;5.27;;;;;;;21.82;36.72;95229.53;6166875;28;104813;-82
2022/09/21 06:43:56;;;;;;;4.97;4.13;;;;;;;21.84;37.15;95230.00;6166731;28;102489;-80
2022/09/21 06:46:59;;;;;;;6.17;4.63;;;;;;;21.79;36.66;95222.91;6160597;28;103628;-82
2022/09/21 06:50:02;;;;;;;4.63;4.17;;;;;;;21.77;36.61;95227.75;6164551;28;103665;-81
2022/09/21 06:53:05;;;;;;;4.40;4.00;;;;;;;21.76;36.40;95220.84;6165818;28;103615;-81
2022/09/21 06:56:11;;;;;;;4.47;3.97;;;;;;;21.85;36.45;95233.50;6165926;28;103454;-81
2022/09/21 06:59:14;;;;;;;6.47;4.47;;;;;;;21.83;36.97;95233.75;6159898;28;104016;-80
2022/09/21 07:02:17;;;;;;;5.10;4.10;;;;;;;21.81;36.53;95228.72;6165689;28;103545;-82
2022/09/21 07:05:20;;;;;;;4.20;3.90;;;;;;;21.91;36.55;95227.75;6165548;28;103802;-80
2022/09/21 07:08:24;;;;;;;4.77;4.10;;;;;;;21.97;36.44;95223.88;6165089;28;103122;-82
2022/09/21 07:11:48;;;;;;;5.43;4.37;;;;;;;22.01;36.04;95224.06;6160066;28;102729;-81
2022/09/21 07:14:51;;;;;;;4.60;3.63;;;;;;;22.01;36.29;95224.88;6166861;28;103365;-82
2022/09/21 07:17:54;;;;;;;4.30;3.90;;;;;;;21.98;36.52;95225.44;6165876;28;104513;-82
2022/09/21 07:21:09;;;;;;;4.17;3.80;;;;;;;22.00;36.24;95219.81;6160114;28;104696;-82
2022/09/21 07:24:13;;;;;;;3.50;3.20;;;;;;;21.97;36.53;95223.88;6164976;28;103757;-81
2022/09/21 07:27:18;;;;;;;3.50;3.20;;;;;;;21.93;36.01;95222.91;6165185;28;103577;-82
2022/09/21 07:30:21;;;;;;;3.20;2.90;;;;;;;21.91;36.29;95217.09;6165437;28;103448;-80
2022/09/21 07:33:25;;;;;;;4.47;2.50;;;;;;;21.89;35.98;95213.94;6159116;28;104549;-81
2022/09/21 07:36:28;;;;;;;2.83;2.63;;;;;;;21.90;35.89;95222.72;6164423;28;103596;-82
2022/09/21 07:39:31;;;;;;;2.80;2.60;;;;;;;21.89;35.40;95226.47;6164972;28;103198;-81
2022/09/21 07:42:37;;;;;;;2.80;2.60;;;;;;;21.81;36.01;95214.59;6147475;28;103592;-82
2022/09/21 07:45:40;;;;;;;3.10;2.90;;;;;;;21.78;35.38;95220.53;6159613;28;105447;-82
2022/09/21 07:48:43;;;;;;;3.20;2.90;;;;;;;21.77;36.07;95216.28;6165345;28;103070;-81
2022/09/21 07:51:46;;;;;;;2.87;2.67;;;;;;;21.75;35.44;95221.94;6165537;28;105431;-82
2022/09/21 07:54:49;;;;;;;3.83;2.40;;;;;;;21.74;35.44;95215.03;6161087;28;103199;-82
2022/09/21 08:01:14;;;;;;;2.60;2.40;;;;;;;21.76;35.56;95220.84;6166028;28;103569;-81
2022/09/21 08:04:18;;;;;;;2.50;2.30;;;;;;;21.80;35.39;95221.81;6164111;28;103040;-82
2022/09/21 08:07:21;;;;;;;2.73;2.40;;;;;;;21.85;35.86;95226.28;6157081;28;103271;-81
2022/09/21 08:10:27;;;;;;;2.43;2.23;;;;;;;21.88;35.29;95228.34;6165365;28;103830;-82
2022/09/21 08:13:32;;;;;;;2.00;1.90;;;;;;;21.85;35.93;95220.19;6164848;28;103366;-82
2022/09/21 08:16:38;;;;;;;2.23;2.00;;;;;;;21.85;35.57;95215.63;6164770;28;103845;-80
2022/09/21 08:19:41;;;;;;;2.60;2.40;;;;;;;21.89;35.37;95216.59;6157920;28;103836;-80
2022/09/21 08:22:45;;;;;;;2.50;2.30;;;;;;;21.89;35.30;95221.94;6163679;28;103462;-81
2022/09/21 08:25:48;;;;;;;2.27;2.07;;;;;;;21.89;35.56;95221.94;6163980;28;103448;-81
2022/09/21 08:28:57;;;;;;;2.50;2.17;;;;;;;21.89;35.51;95221.94;6165189;28;104017;-81
2022/09/21 08:32:02;;;;;;;2.80;2.43;;;;;;;21.91;35.79;95218.97;6151590;28;102811;-81
2022/09/21 08:35:06;;;;;;;2.53;2.00;;;;;;;21.96;35.38;95216.97;6170289;28;104146;-83
2022/09/21 08:38:09;;;;;;;2.20;1.77;;;;;;;21.91;35.56;95202.97;6170386;28;103124;-83
2022/09/21 08:41:17;;;;;;;2.27;2.07;;;;;;;22.00;35.30;95225.94;6163812;28;105283;-80
2022/09/21 08:44:25;;;;;;;3.60;2.17;;;;;;;22.02;35.79;95210.47;6169040;28;103175;-82
2022/09/21 08:47:36;;;;;;;2.40;2.20;;;;;;;22.03;35.34;95211.25;6168724;28;103517;-82
2022/09/21 08:50:47;;;;;;;2.60;2.40;;;;;;;22.04;35.81;95212.81;6169314;28;106953;-82
2022/09/21 08:53:53;;;;;;;5.43;2.47;;;;;;;22.01;35.48;95205.41;6162382;28;104467;-82
2022/09/21 08:56:58;;;;;;;1.97;1.87;;;;;;;21.98;35.72;95201.47;6169737;28;104141;-81
2022/09/21 09:00:14;;;;;;;3.80;2.10;;;;;;;22.00;35.56;95201.94;6170665;28;103727;-79
2022/09/21 09:03:53;;;;;;;3.57;2.00;;;;;;;21.99;35.83;95200.38;6163784;28;103490;-81
2022/09/21 09:07:08;;;;;;;2.03;1.83;;;;;;;21.98;35.95;95195.34;6170479;28;103333;-80
2022/09/21 09:10:28;;;;;;;3.13;1.83;;;;;;;21.98;36.15;95196.13;6168800;28;103392;-81
2022/09/21 09:13:49;;;;;;;2.47;2.13;;;;;;;21.96;35.86;95184.22;6170084;28;102938;-81
2022/09/21 09:17:11;;;;;;;2.40;1.70;;;;;;;21.96;35.55;95179.66;6165220;28;103474;-81
2022/09/21 09:20:19;;;;;;;2.60;1.97;;;;;;;21.97;35.45;95183.91;6170253;28;103352;-82
2022/09/21 09:23:26;;;;;;;3.63;1.90;;;;;;;21.98;35.55;95177.47;6171030;28;105914;-83
2022/09/21 09:26:38;;;;;;;2.90;2.00;;;;;;;21.98;35.43;95176.69;6162338;28;103693;-81
2022/09/21 09:29:49;;;;;;;1.80;1.70;;;;;;;21.98;35.81;95172.16;6169722;28;106470;-82
2022/09/21 09:33:00;;;;;;;2.37;1.73;;;;;;;21.98;35.92;95166.81;6169484;28;103082;-81
2022/09/21 09:36:07;;;;;;;1.87;1.77;;;;;;;21.97;35.35;95159.91;6169184;28;103218;-81
2022/09/21 09:39:13;;;;;;;7.13;2.13;;;;;;;22.00;35.42;95164.66;6161809;28;104132;-81
2022/09/21 09:42:41;;;;;;;1.90;1.80;;;;;;;22.04;35.90;95154.97;6165766;28;104578;-80
2022/09/21 09:45:57;;;;;;;1.63;1.53;;;;;;;21.95;36.12;95148.00;6166688;28;103581;-79
2022/09/21 09:49:19;;;;;;;2.20;2.03;;;;;;;21.95;36.06;95148.78;6161686;28;102827;-81
2022/09/21 09:52:23;;;;;;;2.20;1.77;;;;;;;21.96;35.76;95142.38;6168689;28;103704;-81
2022/09/21 09:55:30;;;;;;;1.90;1.80;;;;;;;21.97;35.90;95140.47;6168133;28;102759;-82
2022/09/21 09:58:41;;;;;;;1.70;1.60;;;;;;;21.97;35.74;95145.81;6169387;28;102775;-80
2022/09/21 10:01:46;;;;;;;2.30;2.10;;;;;;;21.99;35.58;95139.09;6161195;28;105310;-81
2022/09/21 10:05:04;;;;;;;1.40;1.30;;;;;;;21.98;35.73;95134.06;6168961;28;105042;-80
2022/09/21 10:08:28;;;;;;;2.20;2.00;;;;;;;21.99;35.72;95125.75;6168913;28;105259;-81
2022/09/21 10:11:36;;;;;;;2.20;2.00;;;;;;;22.01;35.01;95131.59;6162577;28;103870;-81
2022/09/21 10:14:48;;;;;;;1.60;1.50;;;;;;;22.04;34.98;95122.22;6166613;28;103033;-80
2022/09/21 10:18:03;;;;;;;1.90;1.70;;;;;;;22.03;35.08;95132.09;6167308;28;104669;-80
2022/09/21 10:21:15;;;;;;;2.00;1.50;;;;;;;22.04;35.13;95119.56;6167809;28;104121;-80
2022/09/21 10:24:22;;;;;;;1.33;1.20;;;;;;;22.02;34.96;95119.84;6161506;28;105456;-82
2022/09/21 10:27:28;;;;;;;1.73;1.63;;;;;;;22.07;34.72;95113.59;6168053;28;103320;-82
2022/09/21 10:30:34;;;;;;;2.30;1.83;;;;;;;22.07;34.71;95109.06;6168130;28;103879;-82
2022/09/21 10:33:50;;;;;;;1.70;1.60;;;;;;;22.06;34.59;95115.50;6165344;28;103502;-83
2022/09/21 10:36:56;;;;;;;1.40;1.30;;;;;;;22.04;34.31;95115.00;6165011;28;103167;-82
2022/09/21 10:40:00;;;;;;;1.60;1.50;;;;;;;22.01;34.75;95099.63;6167798;28;103017;-81
2022/09/21 10:43:04;;;;;;;1.40;1.30;;;;;;;22.09;34.81;95106.88;6167605;28;103619;-83
2022/09/21 10:46:07;;;;;;;1.60;1.50;;;;;;;22.09;34.46;95098.88;6159380;28;106082;-79
2022/09/21 10:49:20;;;;;;;1.60;1.50;;;;;;;22.07;34.28;95085.09;6167223;28;103630;-81
2022/09/21 10:52:32;;;;;;;1.87;1.30;;;;;;;22.05;34.06;95078.47;6166823;28;104034;-82
2022/09/21 10:55:39;;;;;;;1.57;1.47;;;;;;;21.97;34.19;95060.56;6167329;28;104055;-82
2022/09/21 10:59:11;;;;;;;1.43;1.30;;;;;;;22.09;34.09;95087.44;6160013;28;102972;-81
2022/09/21 11:02:28;;;;;;;2.00;1.53;;;;;;;22.06;34.22;95086.19;6167147;28;106179;-81
2022/09/21 11:05:35;;;;;;;1.70;1.60;;;;;;;22.05;34.18;95081.94;6168067;28;102679;-82
2022/09/21 11:08:53;;;;;;;1.43;1.33;;;;;;;22.06;34.31;95077.41;6163405;28;103360;-80
2022/09/21 11:12:02;;;;;;;1.50;1.40;;;;;;;21.98;34.32;95060.25;6167436;28;106375;-81
2022/09/21 11:15:16;;;;;;;1.43;1.33;;;;;;;21.98;34.47;95064.78;6166738;28;102950;-81
2022/09/21 11:18:25;;;;;;;1.40;1.30;;;;;;;22.01;34.35;95072.16;6166858;28;103456;-81
2022/09/21 11:21:36;;;;;;;1.57;1.40;;;;;;;22.00;33.99;95067.94;6160656;28;103954;-80
2022/09/21 11:24:49;;;;;;;1.43;1.33;;;;;;;21.98;34.02;95065.56;6166130;28;106909;-81
2022/09/21 11:28:00;;;;;;;1.20;1.10;;;;;;;22.00;33.76;95071.38;6165447;28;104517;-81
2022/09/21 11:31:36;;;;;;;1.30;1.20;;;;;;;21.98;33.99;95062.91;6159745;28;104750;-80
2022/09/21 11:34:52;;;;;;;2.23;1.40;;;;;;;21.96;34.60;95065.09;6165188;28;105314;-80
2022/09/21 11:38:04;;;;;;;1.40;1.30;;;;;;;21.96;34.81;95067.75;6169091;28;104874;-82
2022/09/21 11:41:41;;;;;;;2.10;1.10;;;;;;;21.85;34.37;95055.78;6169486;28;106663;-81
2022/09/21 11:44:54;;;;;;;1.60;1.50;;;;;;;21.93;34.71;95060.38;6139218;28;103799;-81
2022/09/21 11:48:11;;;;;;;1.33;1.07;;;;;;;21.91;33.86;95062.56;6167653;28;106262;-82
2022/09/21 11:51:36;;;;;;;1.50;1.40;;;;;;;21.89;34.47;95062.09;6165067;28;103519;-81
2022/09/21 11:54:57;;;;;;;1.10;1.00;;;;;;;21.92;33.94;95071.34;6160784;28;104130;-83
2022/09/21 11:58:09;;;;;;;1.43;1.33;;;;;;;21.90;33.59;95074.31;6149541;28;103782;-83
2022/09/21 12:01:39;;;;;;;1.27;1.17;;;;;;;21.83;33.67;95073.16;6169580;28;104271;-82
2022/09/21 12:04:49;;;;;;;1.23;1.13;;;;;;;21.90;33.69;95100.16;6166822;28;103170;-82
2022/09/21 12:08:17;;;;;;;1.30;1.20;;;;;;;21.89;33.67;95093.25;6164815;28;102531;-82
2022/09/21 12:11:32;;;;;;;1.30;1.20;;;;;;;21.84;33.90;95102.16;6164927;28;105173;-81
2022/09/21 12:14:45;;;;;;;2.50;1.90;;;;;;;21.82;33.88;95109.66;6167447;28;104868;-82
2022/09/21 12:17:57;;;;;;;2.23;1.30;;;;;;;21.85;34.37;95101.09;6158143;28;105878;-81
2022/09/21 12:21:07;;;;;;;1.60;1.50;;;;;;;21.81;33.93;95100.06;6149074;28;103711;-82
2022/09/21 12:24:16;;;;;;;2.10;1.53;;;;;;;21.84;34.60;95109.34;6164809;28;103248;-82
2022/09/21 12:27:27;;;;;;;2.30;2.10;;;;;;;21.79;34.64;95104.91;6163255;28;105014;-82
2022/09/21 12:30:34;;;;;;;1.83;1.50;;;;;;;21.83;34.08;95118.44;6165221;28;105528;-82
2022/09/21 12:33:44;;;;;;;1.80;1.70;;;;;;;21.82;34.60;95109.66;6166179;28;104727;-81
2022/09/21 12:36:56;;;;;;;2.07;1.97;;;;;;;21.83;34.45;95115.75;6165391;28;104494;-81
2022/09/21 12:40:05;;;;;;;3.17;2.90;;;;;;;21.73;34.23;95100.78;6159715;28;103280;-82
2022/09/21 12:43:27;;;;;;;3.43;3.13;;;;;;;21.80;34.58;95109.94;6165292;28;103361;-81
2022/09/21 12:46:37;;;;;;;3.00;2.70;;;;;;;21.80;34.43;95103.81;6168405;28;103105;-82
2022/09/21 12:49:44;;;;;;;4.20;3.90;;;;;;;21.82;34.41;95104.31;6165091;28;103311;-81
2022/09/21 12:52:51;;;;;;;4.37;3.97;;;;;;;21.75;34.55;95099.41;6162903;28;105999;-83
2022/09/21 12:56:05;;;;;;;4.30;4.00;;;;;;;21.79;34.59;95104.91;6165879;28;105425;-82
2022/09/21 12:59:26;;;;;;;4.77;4.37;;;;;;;21.77;34.46;95097.22;6165837;28;103427;-82
2022/09/21 13:02:36;;;;;;;5.17;4.77;;;;;;;21.73;34.51;95095.47;6159894;28;104143;-82
2022/09/21 13:06:05;;;;;;;5.07;4.57;;;;;;;21.73;34.44;95088.25;6168168;28;106191;-83
2022/09/21 13:09:13;;;;;;;4.60;4.20;;;;;;;21.74;34.41;95089.06;6167985;28;103285;-82
2022/09/21 13:12:20;;;;;;;5.37;4.97;;;;;;;21.75;34.50;95101.28;6166459;28;103407;-81
2022/09/21 13:15:26;;;;;;;5.23;4.83;;;;;;;21.71;34.48;95085.13;6163250;28;103809;-81
2022/09/21 13:18:34;;;;;;;4.83;4.43;;;;;;;21.71;34.72;95085.13;6171549;28;105241;-81
2022/09/21 13:21:38;;;;;;;4.87;4.43;;;;;;;21.73;34.63;95090.13;6169591;28;103538;-81
2022/09/21 13:24:44;;;;;;;4.00;3.70;;;;;;;21.71;34.22;95087.78;6162259;28;103163;-81
2022/09/21 13:28:08;;;;;;;4.03;3.73;;;;;;;21.69;34.75;95086.50;6170925;28;103529;-81
2022/09/21 13:31:56;;;;;;;3.80;3.50;;;;;;;21.69;34.76;95089.19;6173017;28;103812;-79
2022/09/21 13:35:33;;;;;;;3.93;3.63;;;;;;;21.70;34.80;95085.41;6070076;28;103323;-80
2022/09/21 13:39:02;;;;;;;3.70;3.40;;;;;;;21.70;34.83;95082.75;6087758;28;103473;-82
2022/09/21 13:42:38;;;;;;;3.50;3.30;;;;;;;21.71;34.52;95087.00;6172304;28;103612;-80
2022/09/21 13:45:54;;;;;;;4.03;3.63;;;;;;;21.71;34.31;95081.66;6162284;28;104243;-82
2022/09/21 13:49:01;;;;;;;3.17;2.90;;;;;;;21.74;34.43;95083.72;6165155;28;104820;-80
2022/09/21 13:52:07;;;;;;;3.00;2.70;;;;;;;21.72;34.47;95078.69;6168523;28;105326;-82
2022/09/21 13:55:24;;;;;;;3.80;3.50;;;;;;;21.71;35.19;95071.81;6167612;28;102879;-79
2022/09/21 13:58:32;;;;;;;3.63;3.17;;;;;;;21.72;34.74;95083.25;6164866;28;102737;-80
2022/09/21 14:01:36;;;;;;;4.63;2.90;;;;;;;21.66;35.07;95069.22;6149478;28;104513;-79
2022/09/21 14:04:55;;;;;;;3.00;2.80;;;;;;;21.68;34.89;95063.63;6168142;28;103044;-80
2022/09/21 14:08:01;;;;;;;2.80;2.60;;;;;;;21.69;35.09;95073.97;6169918;28;105479;-80
2022/09/21 14:11:10;;;;;;;3.30;3.00;;;;;;;21.70;34.98;95069.44;6161343;28;103338;-80
2022/09/21 14:14:23;;;;;;;3.10;2.90;;;;;;;21.69;35.19;95067.88;6167366;28;103485;-82
2022/09/21 14:17:44;;;;;;;3.13;2.93;;;;;;;21.62;34.85;95059.50;6167099;28;103359;-81
2022/09/21 14:21:16;;;;;;;3.23;3.03;;;;;;;21.63;35.38;95053.06;6164587;28;103690;-81
2022/09/21 14:24:21;;;;;;;2.67;2.47;;;;;;;21.63;35.18;95056.53;6164709;28;102776;-80
2022/09/21 14:27:31;;;;;;;2.70;2.50;;;;;;;21.63;35.37;95050.41;6166379;28;105043;-80
2022/09/21 14:30:37;;;;;;;3.53;3.23;;;;;;;21.64;35.36;95055.44;6166419;28;106396;-81
2022/09/21 14:33:47;;;;;;;3.10;2.90;;;;;;;21.63;35.54;95051.19;6160247;28;103260;-80
2022/09/21 14:36:54;;;;;;;3.13;2.93;;;;;;;21.65;35.14;95056.22;6166655;28;104153;-80
2022/09/21 14:39:59;;;;;;;3.30;3.00;;;;;;;21.53;35.38;95035.47;6170804;28;103283;-83
2022/09/21 14:43:08;;;;;;;2.97;2.70;;;;;;;21.60;35.67;95053.69;6154581;28;102818;-79